createdAt,value
2019-02-24T00:01:23.453Z,63.30
2019-02-24T00:03:50.839Z,63.20
2019-02-24T00:06:18.318Z,62.80
2019-02-24T00:08:45.754Z,62.50
2019-02-24T00:11:13.200Z,61.70
2019-02-24T00:13:40.614Z,61.60
2019-02-24T00:16:07.961Z,61.10
2019-02-24T00:18:35.350Z,61.20
2019-02-24T00:21:02.816Z,61.40
2019-02-24T00:23:30.167Z,61.90
2019-02-24T00:25:57.591Z,61.60
2019-02-24T00:28:24.976Z,61.50
2019-02-24T00:30:52.415Z,61.10
2019-02-24T00:33:19.763Z,60.70
2019-02-24T00:35:47.181Z,61.80
2019-02-24T00:38:14.837Z,62.00
2019-02-24T00:40:42.418Z,62.30
2019-02-24T00:43:09.929Z,63.10
2019-02-24T00:45:37.352Z,63.40
2019-02-24T00:48:04.744Z,64.00
2019-02-24T00:50:32.142Z,64.20
2019-02-24T00:52:59.498Z,64.90
2019-02-24T00:55:26.915Z,65.80
2019-02-24T00:57:54.266Z,65.60
2019-02-24T01:00:21.789Z,65.60
2019-02-24T01:02:49.183Z,64.40
2019-02-24T01:05:16.583Z,64.20
2019-02-24T01:07:44.856Z,64.40
2019-02-24T01:10:12.386Z,63.40
2019-02-24T01:12:39.765Z,62.90
2019-02-24T01:15:07.561Z,62.30
2019-02-24T01:17:34.930Z,61.30
2019-02-24T01:20:02.354Z,60.60
2019-02-24T01:22:30.930Z,60.80
2019-02-24T01:24:58.318Z,59.80
2019-02-24T01:27:25.683Z,59.70
2019-02-24T01:29:52.960Z,59.40
2019-02-24T01:32:20.360Z,58.50
2019-02-24T01:34:47.622Z,58.40
2019-02-24T01:37:15.096Z,57.80
2019-02-24T01:39:42.446Z,56.80
2019-02-24T01:42:09.819Z,56.20
2019-02-24T01:44:37.216Z,55.60
2019-02-24T01:47:04.619Z,55.20
2019-02-24T01:49:31.968Z,55.40
2019-02-24T01:51:59.369Z,55.60
2019-02-24T01:54:26.728Z,55.60
2019-02-24T01:56:54.096Z,55.50
2019-02-24T01:59:21.497Z,55.60
2019-02-24T02:01:48.883Z,56.10
2019-02-24T02:04:16.278Z,56.00
2019-02-24T02:06:43.671Z,56.30
2019-02-24T02:09:11.059Z,56.40
2019-02-24T02:11:38.561Z,56.70
2019-02-24T02:14:05.944Z,57.30
2019-02-24T02:16:34.315Z,57.90
2019-02-24T02:19:01.755Z,57.90
2019-02-24T02:21:29.193Z,58.00
2019-02-24T02:23:57.668Z,58.50
2019-02-24T02:26:25.014Z,58.30
2019-02-24T02:28:52.375Z,58.40
2019-02-24T02:31:19.794Z,58.30
2019-02-24T02:33:47.223Z,57.40
2019-02-24T02:36:14.595Z,57.30
2019-02-24T02:38:42.060Z,57.40
2019-02-24T02:41:09.399Z,57.70
2019-02-24T02:43:36.723Z,57.40
2019-02-24T02:46:04.207Z,58.00
2019-02-24T02:48:31.526Z,58.30
2019-02-24T02:50:58.891Z,58.60
2019-02-24T02:53:26.202Z,58.60
2019-02-24T02:55:53.608Z,58.70
2019-02-24T02:58:21.001Z,59.00
2019-02-24T03:00:48.349Z,58.80
2019-02-24T03:03:15.835Z,57.20
2019-02-24T03:05:53.498Z,57.10
2019-02-24T03:08:22.697Z,57.60
2019-02-24T03:10:50.120Z,57.90
2019-02-24T03:13:17.545Z,58.10
2019-02-24T03:15:44.939Z,58.00
2019-02-24T03:18:12.283Z,58.10
2019-02-24T03:20:39.482Z,58.00
2019-02-24T03:23:06.916Z,58.50
2019-02-24T03:25:34.392Z,58.20
2019-02-24T03:28:01.637Z,57.20
2019-02-24T03:30:29.047Z,57.00
2019-02-24T03:32:56.377Z,57.70
2019-02-24T03:35:23.773Z,58.00
2019-02-24T03:37:51.165Z,58.00
2019-02-24T03:40:18.594Z,58.20
2019-02-24T03:42:46.028Z,58.20
2019-02-24T03:45:13.281Z,58.30
2019-02-24T03:47:40.722Z,58.00
2019-02-24T03:50:09.287Z,57.80
2019-02-24T03:52:36.713Z,57.70
2019-02-24T03:55:04.114Z,57.10
2019-02-24T03:57:31.481Z,56.80
2019-02-24T03:59:59.165Z,56.90
2019-02-24T04:02:26.703Z,57.20
2019-02-24T04:04:54.208Z,57.50
2019-02-24T04:07:21.643Z,57.20
2019-02-24T04:09:49.169Z,57.10
2019-02-24T04:12:16.549Z,57.70
2019-02-24T04:14:43.918Z,58.70
2019-02-24T04:17:12.238Z,57.80
2019-02-24T04:19:39.626Z,57.60
2019-02-24T04:22:06.967Z,57.80
2019-02-24T04:24:34.310Z,57.90
2019-02-24T04:27:01.675Z,58.30
2019-02-24T04:29:29.073Z,58.50
2019-02-24T04:31:56.507Z,58.60
2019-02-24T04:34:23.929Z,59.10
2019-02-24T04:36:51.362Z,59.50
2019-02-24T04:39:18.780Z,59.40
2019-02-24T04:41:46.138Z,59.40
2019-02-24T04:44:13.553Z,58.80
2019-02-24T04:46:40.917Z,59.50
2019-02-24T04:49:08.189Z,59.60
2019-02-24T04:51:35.606Z,59.60
2019-02-24T04:54:03.092Z,59.60
2019-02-24T04:56:30.437Z,59.60
2019-02-24T04:58:57.866Z,59.10
2019-02-24T05:01:25.117Z,59.40
2019-02-24T05:03:52.605Z,59.00
2019-02-24T05:06:19.934Z,59.00
2019-02-24T05:08:47.220Z,59.20
2019-02-24T05:11:14.642Z,59.10
2019-02-24T05:13:41.979Z,59.20
2019-02-24T05:16:09.351Z,59.60
2019-02-24T05:18:36.751Z,59.30
2019-02-24T05:21:04.231Z,59.40
2019-02-24T05:23:32.895Z,59.70
2019-02-24T05:26:00.260Z,59.70
2019-02-24T05:28:27.773Z,59.70
2019-02-24T05:30:55.105Z,60.20
2019-02-24T05:33:22.430Z,59.90
2019-02-24T05:35:49.850Z,59.50
2019-02-24T05:38:17.198Z,59.40
2019-02-24T05:40:44.546Z,59.30
2019-02-24T05:43:11.914Z,59.30
2019-02-24T05:45:39.285Z,59.00
2019-02-24T05:48:06.630Z,58.80
2019-02-24T05:50:33.912Z,58.70
2019-02-24T05:53:01.234Z,58.60
2019-02-24T05:55:28.567Z,58.30
2019-02-24T05:57:55.989Z,58.30
2019-02-24T06:00:23.423Z,58.60
2019-02-24T06:02:50.826Z,58.50
2019-02-24T06:05:18.246Z,58.30
2019-02-24T06:07:45.733Z,58.20
2019-02-24T06:10:13.092Z,58.00
2019-02-24T06:12:40.526Z,58.20
2019-02-24T06:15:07.846Z,58.30
2019-02-24T06:17:35.140Z,58.00
2019-02-24T06:20:02.661Z,56.70
2019-02-24T06:22:30.204Z,56.50
2019-02-24T06:24:57.594Z,56.40
2019-02-24T06:27:24.999Z,54.80
2019-02-24T06:29:52.415Z,54.00
2019-02-24T06:32:19.820Z,53.40
2019-02-24T06:34:47.291Z,52.70
2019-02-24T06:37:15.802Z,52.60
2019-02-24T06:39:43.233Z,52.00
2019-02-24T06:42:10.685Z,51.90
2019-02-24T06:44:38.076Z,51.60
2019-02-24T06:47:05.489Z,51.70
2019-02-24T06:49:33.065Z,51.70
2019-02-24T06:52:01.414Z,51.30
2019-02-24T06:54:28.755Z,51.60
2019-02-24T06:56:56.137Z,51.20
2019-02-24T06:59:23.738Z,51.30
2019-02-24T07:01:51.186Z,51.60
2019-02-24T07:04:18.634Z,51.30
2019-02-24T07:06:46.116Z,51.00
2019-02-24T07:09:13.353Z,51.10
2019-02-24T07:11:40.831Z,50.80
2019-02-24T07:14:08.245Z,51.00
2019-02-24T07:16:35.712Z,51.30
2019-02-24T07:19:03.127Z,51.20
2019-02-24T07:21:30.586Z,50.70
2019-02-24T07:23:58.029Z,50.20
2019-02-24T07:26:25.498Z,49.90
2019-02-24T07:28:53.940Z,50.00
2019-02-24T07:31:21.365Z,50.00
2019-02-24T07:33:48.702Z,49.90
2019-02-24T07:36:16.202Z,49.70
2019-02-24T07:38:43.715Z,49.50
2019-02-24T07:41:11.111Z,48.70
2019-02-24T07:43:38.493Z,48.30
2019-02-24T07:46:06.241Z,48.60
2019-02-24T07:48:33.701Z,48.70
2019-02-24T07:51:00.982Z,48.80
2019-02-24T07:53:28.413Z,48.00
2019-02-24T07:55:55.839Z,48.00
2019-02-24T07:58:23.245Z,47.50
2019-02-24T08:00:50.689Z,47.30
2019-02-24T08:03:17.961Z,47.30
2019-02-24T08:05:45.441Z,46.90
2019-02-24T08:08:16.468Z,45.80
2019-02-24T08:10:42.283Z,45.80
2019-02-24T08:13:09.748Z,45.40
2019-02-24T08:15:37.276Z,45.30
2019-02-24T08:18:04.749Z,45.20
2019-02-24T08:20:33.427Z,44.60
2019-02-24T08:23:01.050Z,44.40
2019-02-24T08:25:28.434Z,43.50
2019-02-24T08:27:55.972Z,43.10
2019-02-24T08:30:23.316Z,42.40
2019-02-24T08:32:50.751Z,42.20
2019-02-24T08:35:18.156Z,41.90
2019-02-24T08:37:45.548Z,40.90
2019-02-24T08:40:12.967Z,40.40
2019-02-24T08:42:40.412Z,40.80
2019-02-24T08:45:08.056Z,41.20
2019-02-24T08:47:35.486Z,42.00
2019-02-24T08:50:03.538Z,42.00
2019-02-24T08:52:31.007Z,40.80
2019-02-24T08:54:58.568Z,40.20
2019-02-24T08:57:25.919Z,39.90
2019-02-24T08:59:53.431Z,40.00
2019-02-24T09:02:20.809Z,39.80
2019-02-24T09:04:48.318Z,39.30
2019-02-24T09:07:16.018Z,39.40
2019-02-24T09:09:43.410Z,38.90
2019-02-24T09:12:10.833Z,39.10
2019-02-24T09:14:38.742Z,38.60
2019-02-24T09:17:06.114Z,38.10
2019-02-24T09:19:33.539Z,38.60
2019-02-24T09:22:00.925Z,38.40
2019-02-24T09:24:29.482Z,37.90
2019-02-24T09:26:56.891Z,38.30
2019-02-24T09:29:24.252Z,38.40
2019-02-24T09:31:51.758Z,38.90
2019-02-24T09:34:19.315Z,38.20
2019-02-24T09:36:46.673Z,38.10
2019-02-24T09:39:14.049Z,38.10
2019-02-24T09:41:41.762Z,37.20
2019-02-24T09:44:09.097Z,37.10
2019-02-24T09:46:37.517Z,36.40
2019-02-24T09:49:04.935Z,36.70
2019-02-24T09:51:32.338Z,36.40
2019-02-24T09:53:59.744Z,35.80
2019-02-24T09:56:27.387Z,36.00
2019-02-24T09:58:54.747Z,36.10
2019-02-24T10:01:22.194Z,35.30
2019-02-24T10:03:49.769Z,35.20
2019-02-24T10:06:17.135Z,35.10
2019-02-24T10:08:44.510Z,34.50
2019-02-24T10:11:13.301Z,34.60
2019-02-24T10:13:40.779Z,34.00
2019-02-24T10:16:08.134Z,34.00
2019-02-24T10:18:35.529Z,33.60
2019-02-24T10:21:03.086Z,33.30
2019-02-24T10:23:30.329Z,33.30
2019-02-24T10:25:57.724Z,34.40
2019-02-24T10:28:25.095Z,35.20
2019-02-24T10:30:52.589Z,35.30
2019-02-24T10:33:19.978Z,35.30
2019-02-24T10:35:47.447Z,35.20
2019-02-24T10:38:14.979Z,35.50
2019-02-24T10:40:42.369Z,35.20
2019-02-24T10:43:09.745Z,34.60
2019-02-24T10:45:37.103Z,34.40
2019-02-24T10:48:13.534Z,34.50
2019-02-24T10:50:33.773Z,34.20
2019-02-24T10:53:01.192Z,32.80
2019-02-24T10:55:28.593Z,32.70
2019-02-24T10:57:56.562Z,32.10
2019-02-24T11:00:23.882Z,31.30
2019-02-24T11:02:51.384Z,31.50
2019-02-24T11:05:18.788Z,31.60
2019-02-24T11:07:46.266Z,31.50
2019-02-24T11:10:14.694Z,30.40
2019-02-24T11:12:42.061Z,30.00
2019-02-24T11:15:09.817Z,30.00
2019-02-24T11:17:37.220Z,30.10
2019-02-24T11:20:05.764Z,29.40
2019-02-24T11:22:34.230Z,28.90
2019-02-24T11:25:01.629Z,28.70
2019-02-24T11:27:29.178Z,28.20
2019-02-24T11:29:56.601Z,27.90
2019-02-24T11:32:23.996Z,27.20
2019-02-24T11:34:51.375Z,27.20
2019-02-24T11:37:18.811Z,26.90
2019-02-24T11:39:46.097Z,26.40
2019-02-24T11:42:14.564Z,26.40
2019-02-24T11:44:41.934Z,23.10
2019-02-24T11:47:09.282Z,21.00
2019-02-24T11:49:36.644Z,19.70
2019-02-24T11:52:05.063Z,18.00
2019-02-24T11:54:32.503Z,16.90
2019-02-24T11:56:59.891Z,15.80
2019-02-24T11:59:27.344Z,16.30
2019-02-24T12:01:54.713Z,17.00
2019-02-24T12:04:22.046Z,18.10
2019-02-24T12:06:49.481Z,19.00
2019-02-24T12:09:16.856Z,20.30
2019-02-24T12:11:44.219Z,21.70
2019-02-24T12:14:11.608Z,21.80
2019-02-24T12:16:39.060Z,20.30
2019-02-24T12:19:06.500Z,18.80
2019-02-24T12:21:34.099Z,17.30
2019-02-24T12:24:01.518Z,16.60
2019-02-24T12:26:28.966Z,15.50
2019-02-24T12:28:56.557Z,15.10
2019-02-24T12:31:24.004Z,14.50
2019-02-24T12:33:51.363Z,15.60
2019-02-24T12:36:18.761Z,14.80
2019-02-24T12:38:46.123Z,14.80
2019-02-24T12:41:15.342Z,14.90
2019-02-24T12:43:42.832Z,14.80
2019-02-24T12:46:10.238Z,14.40
2019-02-24T12:48:37.731Z,14.10
2019-02-24T12:51:05.253Z,13.50
2019-02-24T12:53:33.786Z,14.30
2019-02-24T12:56:01.169Z,14.40
2019-02-24T12:58:28.523Z,14.50
2019-02-24T13:00:55.913Z,13.70
2019-02-24T13:03:24.211Z,14.50
2019-02-24T13:05:51.747Z,15.20
2019-02-24T13:08:19.176Z,17.60
2019-02-24T13:10:46.618Z,18.90
2019-02-24T13:13:14.008Z,19.20
2019-02-24T13:15:41.526Z,19.30
2019-02-24T13:18:08.880Z,19.90
2019-02-24T13:20:36.369Z,19.80
2019-02-24T13:23:03.840Z,20.00
2019-02-24T13:25:32.185Z,19.90
2019-02-24T13:27:59.567Z,19.90
2019-02-24T13:30:26.928Z,19.00
2019-02-24T13:32:54.422Z,18.80
2019-02-24T13:35:21.890Z,18.50
2019-02-24T13:37:49.236Z,19.00
2019-02-24T13:40:16.653Z,20.00
2019-02-24T13:42:44.044Z,20.80
2019-02-24T13:45:12.347Z,21.30
2019-02-24T13:47:39.834Z,21.50
2019-02-24T13:50:08.471Z,22.50
2019-02-24T13:52:35.862Z,21.30
2019-02-24T13:55:03.825Z,19.80
2019-02-24T13:57:31.247Z,19.50
2019-02-24T13:59:58.766Z,18.20
2019-02-24T14:02:27.292Z,18.20
2019-02-24T14:04:54.710Z,18.20
2019-02-24T14:07:22.054Z,18.70
2019-02-24T14:09:49.408Z,19.50
2019-02-24T14:12:16.670Z,19.30
2019-02-24T14:14:48.976Z,20.10
2019-02-24T14:17:13.560Z,20.70
2019-02-24T14:19:40.920Z,21.40
2019-02-24T14:22:09.821Z,21.30
2019-02-24T14:24:37.243Z,21.50
2019-02-24T14:27:04.726Z,22.10
2019-02-24T14:29:32.110Z,21.50
2019-02-24T14:31:59.467Z,21.50
2019-02-24T14:34:26.863Z,22.00
2019-02-24T14:36:54.256Z,21.80
2019-02-24T14:39:22.294Z,21.00
2019-02-24T14:41:49.779Z,21.70
2019-02-24T14:44:17.114Z,21.50
2019-02-24T14:46:44.477Z,21.30
2019-02-24T14:49:11.870Z,21.40
2019-02-24T14:51:39.241Z,21.80
2019-02-24T14:54:06.587Z,22.10
2019-02-24T14:56:33.977Z,22.10
2019-02-24T14:59:01.392Z,22.50
2019-02-24T15:01:28.870Z,23.00
2019-02-24T15:03:56.221Z,22.80
2019-02-24T15:06:23.650Z,23.30
2019-02-24T15:08:51.049Z,23.30
2019-02-24T15:11:18.473Z,23.40
2019-02-24T15:13:45.813Z,23.40
2019-02-24T15:16:13.242Z,23.20
2019-02-24T15:18:40.614Z,23.40
2019-02-24T15:21:08.064Z,23.00
2019-02-24T15:23:35.491Z,23.00
2019-02-24T15:26:03.693Z,22.50
2019-02-24T15:28:30.972Z,22.50
2019-02-24T15:30:59.483Z,22.50
2019-02-24T15:33:26.994Z,22.50
2019-02-24T15:35:54.414Z,23.20
2019-02-24T15:38:22.869Z,23.30
2019-02-24T15:40:50.306Z,23.80
2019-02-24T15:43:17.802Z,23.90
2019-02-24T15:45:45.143Z,23.60
2019-02-24T15:48:12.591Z,23.90
2019-02-24T15:50:39.942Z,24.30
2019-02-24T15:53:07.419Z,24.40
2019-02-24T15:55:34.839Z,24.30
2019-02-24T15:58:02.209Z,24.60
2019-02-24T16:00:29.652Z,24.70
2019-02-24T16:03:01.421Z,24.70
2019-02-24T16:05:28.886Z,24.50
2019-02-24T16:07:56.279Z,24.80
2019-02-24T16:10:23.692Z,25.10
2019-02-24T16:12:51.155Z,25.50
2019-02-24T16:15:18.475Z,25.50
2019-02-24T16:17:45.949Z,25.30
2019-02-24T16:20:18.890Z,25.10
2019-02-24T16:22:46.345Z,25.40
2019-02-24T16:25:13.783Z,25.50
2019-02-24T16:27:41.315Z,25.70
2019-02-24T16:30:09.824Z,25.80
2019-02-24T16:32:37.149Z,26.60
2019-02-24T16:35:05.013Z,26.00
2019-02-24T16:37:32.434Z,25.60
2019-02-24T16:39:59.873Z,26.00
2019-02-24T16:42:27.396Z,26.10
2019-02-24T16:44:54.759Z,25.60
2019-02-24T16:47:22.150Z,25.70
2019-02-24T16:49:49.636Z,26.00
2019-02-24T16:52:17.029Z,26.00
2019-02-24T16:54:52.531Z,26.00
2019-02-24T16:57:13.786Z,26.30
2019-02-24T16:59:41.191Z,26.60
2019-02-24T17:02:08.722Z,26.70
2019-02-24T17:04:36.179Z,26.90
2019-02-24T17:07:03.590Z,27.10
2019-02-24T17:09:30.961Z,27.30
2019-02-24T17:11:58.376Z,27.40
2019-02-24T17:14:25.867Z,28.00
2019-02-24T17:17:01.375Z,27.50
2019-02-24T17:19:22.754Z,27.80
2019-02-24T17:21:50.355Z,28.10
2019-02-24T17:24:17.807Z,28.50
2019-02-24T17:26:45.347Z,28.70
2019-02-24T17:29:12.777Z,28.80
2019-02-24T17:31:40.159Z,29.00
2019-02-24T17:34:07.629Z,29.30
2019-02-24T17:36:35.114Z,29.50
2019-02-24T17:39:03.997Z,29.40
2019-02-24T17:41:33.504Z,29.50
2019-02-24T17:44:00.915Z,30.00
2019-02-24T17:46:28.392Z,30.60
2019-02-24T17:48:55.818Z,31.50
2019-02-24T17:51:23.447Z,31.50
2019-02-24T17:53:50.806Z,31.50
2019-02-24T17:56:18.248Z,31.30
2019-02-24T17:58:45.834Z,31.40
2019-02-24T18:01:13.400Z,32.00
2019-02-24T18:03:40.953Z,33.40
2019-02-24T18:06:08.343Z,34.30
2019-02-24T18:08:35.784Z,35.20
2019-02-24T18:11:03.251Z,35.20
2019-02-24T18:13:30.628Z,35.40
2019-02-24T18:15:58.035Z,35.70
2019-02-24T18:18:25.355Z,35.70
2019-02-24T18:20:52.748Z,35.60
2019-02-24T18:23:20.317Z,36.20
2019-02-24T18:25:47.731Z,36.20
2019-02-24T18:28:15.239Z,35.70
2019-02-24T18:30:42.654Z,36.80
2019-02-24T18:33:10.045Z,38.20
2019-02-24T18:35:37.522Z,37.90
2019-02-24T18:38:04.950Z,36.90
2019-02-24T18:40:32.333Z,36.80
2019-02-24T18:43:00.872Z,35.50
2019-02-24T18:45:28.365Z,35.20
2019-02-24T18:47:55.867Z,34.90
2019-02-24T18:50:23.418Z,34.40
2019-02-24T18:52:54.722Z,33.70
2019-02-24T18:55:22.122Z,33.60
2019-02-24T18:57:51.030Z,33.70
2019-02-24T19:00:19.001Z,34.10
2019-02-24T19:02:47.615Z,34.60
2019-02-24T19:05:17.280Z,35.50
2019-02-24T19:07:45.435Z,34.80
2019-02-24T19:10:14.003Z,35.10
2019-02-24T19:12:41.460Z,35.30
2019-02-24T19:15:11.987Z,35.50
2019-02-24T19:17:39.555Z,35.50
2019-02-24T19:20:07.934Z,35.60
2019-02-24T19:22:35.566Z,35.80
2019-02-24T19:25:03.235Z,36.10
2019-02-24T19:27:31.363Z,36.10
2019-02-24T19:29:59.072Z,36.20
2019-02-24T19:32:26.604Z,36.10
2019-02-24T19:34:54.092Z,36.30
2019-02-24T19:37:21.587Z,36.80
2019-02-24T19:39:49.104Z,36.90
2019-02-24T19:42:16.486Z,37.00
2019-02-24T19:44:44.018Z,36.80
2019-02-24T19:47:12.217Z,36.80
2019-02-24T19:49:39.745Z,36.70
2019-02-24T19:52:07.116Z,37.40
2019-02-24T19:54:34.730Z,38.00
2019-02-24T19:57:02.200Z,38.20
2019-02-24T19:59:29.572Z,38.80
2019-02-24T20:01:57.031Z,39.70
2019-02-24T20:04:24.549Z,40.10
2019-02-24T20:06:53.209Z,40.60
2019-02-24T20:09:20.703Z,41.30
2019-02-24T20:11:48.199Z,42.00
2019-02-24T20:14:16.172Z,42.80
2019-02-24T20:16:45.366Z,42.70
2019-02-24T20:19:13.248Z,41.60
2019-02-24T20:21:40.779Z,41.70
2019-02-24T20:24:08.364Z,41.60
2019-02-24T20:26:35.706Z,41.90
2019-02-24T20:29:03.220Z,42.00
2019-02-24T20:31:30.819Z,42.80
2019-02-24T20:33:58.379Z,43.60
2019-02-24T20:36:26.420Z,43.70
2019-02-24T20:38:53.754Z,43.80
2019-02-24T20:41:21.160Z,44.20
2019-02-24T20:43:48.629Z,44.50
2019-02-24T20:46:16.086Z,45.10
2019-02-24T20:48:43.604Z,45.00
2019-02-24T20:51:11.013Z,45.30
2019-02-24T20:53:38.436Z,45.90
2019-02-24T20:56:05.774Z,46.50
2019-02-24T20:58:33.182Z,46.70
2019-02-24T21:01:00.596Z,46.70
2019-02-24T21:03:28.028Z,46.20
2019-02-24T21:05:55.401Z,46.30
2019-02-24T21:08:22.843Z,46.30
2019-02-24T21:10:50.271Z,47.30
2019-02-24T21:13:17.657Z,47.50
2019-02-24T21:15:45.049Z,46.20
2019-02-24T21:18:12.506Z,45.10
2019-02-24T21:20:39.998Z,44.50
2019-02-24T21:23:07.353Z,44.30
2019-02-24T21:25:34.816Z,42.40
2019-02-24T21:28:02.278Z,41.60
2019-02-24T21:30:31.709Z,41.90
2019-02-24T21:32:58.998Z,41.10
2019-02-24T21:35:26.415Z,40.50
2019-02-24T21:37:53.828Z,40.50
2019-02-24T21:40:23.361Z,40.60
2019-02-24T21:42:50.599Z,39.90
2019-02-24T21:45:18.403Z,39.80
2019-02-24T21:47:45.775Z,39.70
2019-02-24T21:50:14.707Z,39.70
2019-02-24T21:52:42.162Z,39.90
2019-02-24T21:55:09.654Z,39.70
2019-02-24T21:57:37.098Z,40.30
2019-02-24T22:00:07.416Z,40.20
2019-02-24T22:02:35.113Z,40.50
2019-02-24T22:05:02.879Z,40.80
2019-02-24T22:07:30.285Z,40.80
2019-02-24T22:09:57.786Z,41.10
2019-02-24T22:12:25.212Z,41.20
2019-02-24T22:14:52.603Z,41.30
2019-02-24T22:17:20.009Z,41.10
2019-02-24T22:19:47.473Z,42.00
2019-02-24T22:22:14.898Z,41.80
2019-02-24T22:24:42.201Z,41.50
2019-02-24T22:27:09.550Z,41.20
2019-02-24T22:29:36.922Z,41.30
2019-02-24T22:32:04.233Z,41.30
2019-02-24T22:34:31.691Z,41.20
2019-02-24T22:36:59.084Z,41.30
2019-02-24T22:39:26.487Z,41.30
2019-02-24T22:41:54.271Z,41.10
2019-02-24T22:44:21.624Z,41.20
2019-02-24T22:46:49.456Z,41.70
2019-02-24T22:49:16.798Z,41.50
2019-02-24T22:51:44.205Z,41.20
2019-02-24T22:54:11.637Z,41.10
2019-02-24T22:56:39.035Z,40.90
2019-02-24T22:59:06.474Z,41.20
2019-02-24T23:01:37.245Z,41.90
2019-02-24T23:04:10.991Z,43.10
2019-02-24T23:06:38.570Z,44.10
2019-02-24T23:09:10.226Z,44.50
2019-02-24T23:11:38.379Z,45.40
2019-02-24T23:14:05.740Z,46.80
2019-02-24T23:16:33.200Z,47.40
2019-02-24T23:19:00.599Z,48.00
2019-02-24T23:21:27.979Z,48.40
2019-02-24T23:23:55.330Z,48.80
2019-02-24T23:26:22.747Z,49.20
2019-02-24T23:28:50.255Z,49.70
2019-02-24T23:31:17.714Z,50.00
2019-02-24T23:33:45.080Z,50.40
2019-02-24T23:36:12.465Z,50.60
2019-02-24T23:38:39.886Z,50.50
2019-02-24T23:41:07.959Z,50.70
2019-02-24T23:43:35.334Z,50.80
2019-02-24T23:46:02.688Z,50.90
2019-02-24T23:48:30.027Z,50.70
2019-02-24T23:50:57.399Z,49.90
2019-02-24T23:53:24.783Z,49.40
2019-02-24T23:55:52.150Z,50.40
2019-02-24T23:58:19.618Z,50.90
